Saint Stephens, Alabama
Current Conditions -  °F | °C
As of 6:56 PM on Monday 20 Oct 2014 (Local Time) from KMOB Reporting Station
Scattered Clouds Scattered Clouds  
Wind Chill: 62°   Ceiling: Unl
Heat Index: 62°   Visibility: 10mi
Dew Point: 55°   Wind: 3mph
Humidity: 78%   Direction: 350°N
Pressure: 30"   Gusts: NA
Location:  31.54°N, 88.06°W
Report Text: KMOB 202356Z 35003KT 10SM FEW150 SCT250 17/13 A3000 RMK AO2 SLP158 T01670128 10261 20167 53000
Loading
Personal Weather Stations






























Interactive Weather Map
Tropical Storm Tracking
New forecast layout! Learn more

10-Day Weather Forecast

Advertisements
Track Severe Weather on mobile